createdAt,value
2022-12-04T00:01:27.091Z,3.25
2022-12-04T00:03:57.972Z,3.28
2022-12-04T00:06:27.380Z,3.27
2022-12-04T00:08:56.104Z,3.25
2022-12-04T00:11:28.440Z,3.18
2022-12-04T00:14:00.169Z,3.19
2022-12-04T00:16:31.102Z,3.23
2022-12-04T00:18:58.966Z,3.26
2022-12-04T00:21:27.044Z,3.32
2022-12-04T00:23:54.911Z,3.32
2022-12-04T00:26:28.233Z,3.24
2022-12-04T00:28:57.240Z,3.17
2022-12-04T00:31:27.820Z,3.19
2022-12-04T00:33:55.200Z,3.30
2022-12-04T00:36:26.840Z,3.30
2022-12-04T00:38:54.900Z,3.39
2022-12-04T00:41:28.194Z,3.30
2022-12-04T00:43:55.491Z,3.34
2022-12-04T00:46:23.844Z,3.38
2022-12-04T00:48:52.694Z,3.15
2022-12-04T00:51:24.990Z,3.19
2022-12-04T00:53:53.580Z,3.16
2022-12-04T00:56:26.131Z,3.19
2022-12-04T00:58:56.307Z,3.28
2022-12-04T01:01:25.832Z,3.34
2022-12-04T01:03:54.538Z,3.26
2022-12-04T01:06:29.682Z,3.28
2022-12-04T01:08:59.248Z,3.28
2022-12-04T01:11:29.097Z,3.21
2022-12-04T01:13:57.511Z,3.15
2022-12-04T01:16:36.192Z,3.13
2022-12-04T01:19:09.923Z,3.09
2022-12-04T01:21:38.730Z,3.09
2022-12-04T01:24:06.969Z,3.02
2022-12-04T01:26:35.029Z,3.02
2022-12-04T01:29:02.401Z,3.02
2022-12-04T01:31:30.215Z,2.87
2022-12-04T01:33:57.546Z,2.90
2022-12-04T01:36:28.554Z,2.71
2022-12-04T01:38:56.768Z,2.65
2022-12-04T01:41:29.620Z,2.72
2022-12-04T01:44:21.014Z,2.79
2022-12-04T01:46:56.528Z,2.72
2022-12-04T01:49:48.026Z,2.84
2022-12-04T01:52:24.272Z,2.83
2022-12-04T01:55:00.435Z,2.76
2022-12-04T01:57:32.670Z,2.74
2022-12-04T02:00:09.040Z,2.82
2022-12-04T02:02:41.743Z,2.86
2022-12-04T02:05:14.434Z,2.88
2022-12-04T02:07:45.790Z,2.90
2022-12-04T02:10:14.445Z,2.90
2022-12-04T02:13:41.902Z,2.83
2022-12-04T02:16:36.991Z,2.91
2022-12-04T02:19:46.408Z,2.85
2022-12-04T02:22:55.553Z,2.96
2022-12-04T02:25:47.824Z,2.86
2022-12-04T02:28:49.273Z,2.82
2022-12-04T02:31:31.029Z,2.69
2022-12-04T02:34:07.371Z,2.70
2022-12-04T02:36:47.035Z,2.73
2022-12-04T02:39:38.519Z,2.74
2022-12-04T02:42:18.647Z,2.82
2022-12-04T02:45:01.478Z,2.81
2022-12-04T02:47:32.318Z,2.92
2022-12-04T02:50:03.408Z,2.85
2022-12-04T02:52:42.094Z,2.86
2022-12-04T02:55:28.205Z,2.88
2022-12-04T02:58:04.986Z,2.82
2022-12-04T03:00:33.513Z,2.83
2022-12-04T03:03:14.530Z,2.92
2022-12-04T03:06:06.621Z,2.83
2022-12-04T03:08:51.242Z,2.82
2022-12-04T03:11:18.890Z,2.85
2022-12-04T03:13:57.139Z,2.93
2022-12-04T03:16:39.664Z,2.92
2022-12-04T03:19:23.937Z,2.92
2022-12-04T03:22:08.385Z,2.88
2022-12-04T03:24:46.127Z,3.00
2022-12-04T03:27:28.278Z,2.92
2022-12-04T03:30:04.151Z,3.08
2022-12-04T03:32:43.577Z,3.13
2022-12-04T03:35:23.671Z,3.00
2022-12-04T03:38:29.943Z,3.03
2022-12-04T03:41:11.235Z,3.13
2022-12-04T03:44:11.171Z,2.98
2022-12-04T03:46:41.869Z,3.10
2022-12-04T03:49:15.826Z,3.10
2022-12-04T03:52:00.537Z,3.15
2022-12-04T03:55:41.180Z,3.10
2022-12-04T03:58:17.523Z,3.18
2022-12-04T04:00:50.043Z,3.17
2022-12-04T04:03:25.833Z,3.29
2022-12-04T04:06:02.473Z,3.11
2022-12-04T04:08:36.333Z,3.16
2022-12-04T04:11:14.486Z,3.17
2022-12-04T04:14:13.797Z,3.19
2022-12-04T04:17:06.959Z,3.26
2022-12-04T04:19:57.551Z,3.21
2022-12-04T04:22:46.039Z,3.13
2022-12-04T04:25:20.615Z,3.13
2022-12-04T04:27:58.900Z,3.10
2022-12-04T04:30:30.167Z,3.00
2022-12-04T04:33:16.995Z,3.10
2022-12-04T04:36:02.632Z,3.06
2022-12-04T04:38:45.857Z,3.17
2022-12-04T04:41:53.357Z,3.05
2022-12-04T04:44:45.382Z,3.04
2022-12-04T04:47:25.405Z,3.13
2022-12-04T04:49:57.480Z,3.06
2022-12-04T04:52:25.803Z,3.02
2022-12-04T04:54:53.575Z,3.04
2022-12-04T04:57:34.077Z,3.10
2022-12-04T05:00:11.655Z,3.02
2022-12-04T05:02:39.404Z,3.08
2022-12-04T05:05:07.836Z,3.10
2022-12-04T05:07:35.414Z,3.23
2022-12-04T05:10:02.712Z,3.16
2022-12-04T05:12:30.182Z,3.16
2022-12-04T05:14:57.516Z,3.23
2022-12-04T05:17:24.977Z,3.26
2022-12-04T05:19:56.672Z,3.11
2022-12-04T05:22:32.253Z,3.10
2022-12-04T05:25:00.827Z,3.06
2022-12-04T05:27:30.237Z,3.09
2022-12-04T05:29:59.127Z,3.00
2022-12-04T05:32:29.315Z,3.12
2022-12-04T05:34:58.039Z,2.94
2022-12-04T05:37:25.928Z,3.00
2022-12-04T05:39:54.066Z,3.06
2022-12-04T05:42:22.145Z,2.99
2022-12-04T05:44:50.341Z,2.92
2022-12-04T05:47:18.208Z,2.90
2022-12-04T05:49:45.419Z,2.92
2022-12-04T05:52:13.017Z,2.81
2022-12-04T05:54:40.395Z,2.87
2022-12-04T05:57:08.809Z,2.93
2022-12-04T05:59:36.327Z,2.96
2022-12-04T06:02:04.112Z,2.90
2022-12-04T06:04:31.440Z,2.89
2022-12-04T06:06:58.928Z,2.86
2022-12-04T06:09:26.130Z,2.89
2022-12-04T06:11:58.507Z,2.79
2022-12-04T06:14:26.213Z,2.66
2022-12-04T06:16:53.792Z,2.76
2022-12-04T06:19:23.560Z,2.69
2022-12-04T06:21:53.526Z,2.72
2022-12-04T06:24:24.773Z,2.76
2022-12-04T06:29:47.536Z,2.71
2022-12-04T06:32:20.961Z,2.80
2022-12-04T06:34:53.719Z,2.79
2022-12-04T06:37:24.914Z,2.71
2022-12-04T06:39:52.203Z,2.84
2022-12-04T06:42:19.681Z,2.79
2022-12-04T06:44:46.865Z,2.69
2022-12-04T06:47:14.334Z,2.76
2022-12-04T06:49:41.638Z,2.73
2022-12-04T06:52:09.217Z,2.76
2022-12-04T06:54:36.411Z,2.88
2022-12-04T06:57:04.006Z,2.87
2022-12-04T06:59:31.268Z,2.91
2022-12-04T07:01:58.809Z,2.95
2022-12-04T07:04:26.012Z,3.05
2022-12-04T07:06:53.556Z,3.05
2022-12-04T07:09:20.785Z,3.00
2022-12-04T07:11:48.278Z,3.12
2022-12-04T07:14:15.468Z,3.12
2022-12-04T07:16:43.514Z,3.27
2022-12-04T07:19:14.141Z,3.25
2022-12-04T07:21:43.329Z,3.30
2022-12-04T07:24:17.153Z,3.28
2022-12-04T07:26:45.823Z,3.21
2022-12-04T07:29:13.565Z,3.32
2022-12-04T07:31:41.154Z,3.38
2022-12-04T07:34:08.381Z,3.40
2022-12-04T07:36:35.883Z,3.45
2022-12-04T07:39:03.202Z,3.47
2022-12-04T07:41:30.651Z,3.42
2022-12-04T07:43:57.803Z,3.31
2022-12-04T07:46:28.620Z,3.48
2022-12-04T07:48:58.313Z,3.43
2022-12-04T07:51:29.256Z,3.48
2022-12-04T07:54:03.573Z,3.42
2022-12-04T07:56:32.592Z,3.34
2022-12-04T07:59:00.529Z,3.39
2022-12-04T08:01:28.281Z,3.52
2022-12-04T08:03:58.378Z,3.70
2022-12-04T08:06:28.750Z,3.69
2022-12-04T08:08:57.516Z,3.74
2022-12-04T08:11:27.392Z,3.74
2022-12-04T08:14:04.037Z,3.83
2022-12-04T08:16:33.543Z,3.78
2022-12-04T08:19:01.423Z,3.94
2022-12-04T08:21:31.881Z,3.91
2022-12-04T08:24:00.939Z,4.01
2022-12-04T08:26:30.858Z,4.19
2022-12-04T08:28:59.255Z,4.10
2022-12-04T08:31:30.468Z,4.20
2022-12-04T08:34:00.140Z,4.24
2022-12-04T08:36:28.862Z,4.44
2022-12-04T08:38:56.784Z,4.52
2022-12-04T08:41:26.861Z,4.62
2022-12-04T08:43:55.957Z,4.66
2022-12-04T08:46:26.319Z,4.39
2022-12-04T08:48:55.128Z,4.48
2022-12-04T08:51:30.998Z,4.66
2022-12-04T08:54:05.539Z,4.74
2022-12-04T08:56:36.131Z,5.00
2022-12-04T08:59:04.409Z,5.12
2022-12-04T09:01:32.143Z,5.19
2022-12-04T09:03:59.851Z,5.16
2022-12-04T09:06:27.602Z,5.09
2022-12-04T09:08:56.902Z,5.18
2022-12-04T09:11:28.411Z,5.17
2022-12-04T09:13:56.154Z,5.10
2022-12-04T09:16:25.920Z,5.10
2022-12-04T09:18:54.344Z,5.27
2022-12-04T09:21:24.059Z,5.18
2022-12-04T09:23:51.829Z,5.14
2022-12-04T09:26:31.267Z,5.31
2022-12-04T09:29:03.622Z,5.31
2022-12-04T09:31:33.154Z,5.45
2022-12-04T09:34:01.615Z,5.44
2022-12-04T09:36:29.919Z,5.50
2022-12-04T09:38:58.680Z,5.69
2022-12-04T09:41:52.481Z,5.81
2022-12-04T09:45:01.141Z,5.81
2022-12-04T09:47:36.831Z,5.90
2022-12-04T09:50:16.707Z,6.11
2022-12-04T09:53:06.237Z,6.26
2022-12-04T09:56:04.852Z,6.16
2022-12-04T09:58:52.425Z,6.34
2022-12-04T10:01:34.559Z,6.51
2022-12-04T10:04:06.143Z,6.49
2022-12-04T10:07:13.135Z,6.33
2022-12-04T10:09:55.023Z,6.18
2022-12-04T10:12:55.491Z,6.02
2022-12-04T10:15:47.960Z,5.98
2022-12-04T10:18:49.402Z,5.76
2022-12-04T10:21:29.406Z,5.92
2022-12-04T10:24:28.292Z,6.07
2022-12-04T10:27:02.620Z,6.04
2022-12-04T10:29:36.089Z,5.95
2022-12-04T10:32:26.906Z,6.16
2022-12-04T10:35:03.087Z,6.18
2022-12-04T10:37:37.793Z,6.25
2022-12-04T10:40:23.405Z,6.19
2022-12-04T10:43:22.831Z,6.42
2022-12-04T10:45:52.089Z,6.38
2022-12-04T10:48:28.415Z,6.52
2022-12-04T10:50:55.627Z,6.78
2022-12-04T10:53:32.737Z,6.95
2022-12-04T10:56:18.112Z,7.06
2022-12-04T10:59:04.978Z,7.45
2022-12-04T11:01:35.576Z,7.90
2022-12-04T11:04:30.174Z,8.18
2022-12-04T11:07:26.364Z,8.53
2022-12-04T11:10:06.686Z,8.74
2022-12-04T11:12:34.359Z,9.23
2022-12-04T11:15:19.838Z,9.73
2022-12-04T11:17:47.115Z,10.25
2022-12-04T11:20:21.158Z,10.86
2022-12-04T11:22:57.229Z,10.95
2022-12-04T11:25:34.481Z,11.62
2022-12-04T11:28:04.536Z,11.79
2022-12-04T11:30:37.073Z,12.57
2022-12-04T11:33:18.483Z,14.36
2022-12-04T11:35:55.538Z,14.54
2022-12-04T11:38:28.360Z,15.26
2022-12-04T11:40:58.388Z,15.26
2022-12-04T11:43:30.610Z,15.51
2022-12-04T11:46:07.337Z,15.32
2022-12-04T11:48:53.493Z,14.84
2022-12-04T11:51:54.576Z,14.69
2022-12-04T11:54:39.508Z,15.43
2022-12-04T11:57:30.145Z,17.20
2022-12-04T12:00:27.671Z,18.56
2022-12-04T12:03:20.956Z,20.16
2022-12-04T12:06:13.018Z,21.04
2022-12-04T12:09:00.040Z,20.61
2022-12-04T12:11:41.095Z,20.28
2022-12-04T12:14:32.365Z,20.32
2022-12-04T12:17:14.048Z,19.69
2022-12-04T12:20:08.427Z,18.62
2022-12-04T12:22:51.749Z,18.29
2022-12-04T12:25:27.140Z,18.95
2022-12-04T12:28:13.339Z,19.69
2022-12-04T12:31:05.784Z,20.58
2022-12-04T12:33:48.445Z,21.21
2022-12-04T12:36:16.339Z,21.85
2022-12-04T12:39:16.192Z,21.44
2022-12-04T12:41:50.369Z,20.74
2022-12-04T12:44:32.025Z,20.47
2022-12-04T12:47:13.742Z,20.13
2022-12-04T12:49:55.799Z,19.56
2022-12-04T12:52:52.323Z,19.65
2022-12-04T12:55:44.654Z,18.90
2022-12-04T12:58:17.489Z,18.84
2022-12-04T13:00:58.400Z,18.78
2022-12-04T13:04:09.815Z,18.82
2022-12-04T13:06:43.372Z,19.23
2022-12-04T13:09:33.447Z,18.78
2022-12-04T13:12:15.810Z,18.79
2022-12-04T13:14:48.637Z,18.39
2022-12-04T13:17:38.888Z,17.12
2022-12-04T13:20:18.214Z,16.56
2022-12-04T13:23:26.877Z,15.50
2022-12-04T13:26:09.829Z,13.72
2022-12-04T13:28:50.730Z,13.09
2022-12-04T13:31:39.728Z,12.12
2022-12-04T13:34:39.240Z,11.13
2022-12-04T13:37:56.160Z,10.50
2022-12-04T13:40:42.258Z,9.93
2022-12-04T13:43:22.407Z,9.33
2022-12-04T13:45:54.400Z,8.65
2022-12-04T13:48:40.809Z,8.56
2022-12-04T13:51:14.144Z,8.23
2022-12-04T13:53:46.363Z,7.99
2022-12-04T13:56:30.120Z,7.67
2022-12-04T13:59:19.735Z,7.42
2022-12-04T14:01:52.364Z,7.38
2022-12-04T14:04:32.230Z,7.28
2022-12-04T14:07:04.107Z,6.89
2022-12-04T14:09:49.305Z,6.93
2022-12-04T14:12:18.220Z,6.71
2022-12-04T14:14:58.199Z,6.60
2022-12-04T14:17:38.062Z,6.47
2022-12-04T14:20:27.981Z,6.46
2022-12-04T14:22:55.750Z,6.20
2022-12-04T14:25:36.373Z,6.11
2022-12-04T14:28:41.752Z,5.97
2022-12-04T14:31:31.134Z,5.95
2022-12-04T14:34:11.564Z,5.96
2022-12-04T14:36:45.680Z,6.03
2022-12-04T14:39:27.259Z,5.88
2022-12-04T14:42:06.338Z,5.76
2022-12-04T14:44:33.833Z,5.91
2022-12-04T14:47:25.409Z,6.01
2022-12-04T14:50:19.395Z,6.00
2022-12-04T14:53:11.547Z,6.03
2022-12-04T14:56:10.693Z,6.06
2022-12-04T14:58:39.059Z,5.90
2022-12-04T15:01:41.100Z,5.77
2022-12-04T15:04:31.147Z,5.66
2022-12-04T15:07:00.768Z,5.69
2022-12-04T15:09:47.831Z,5.68
2022-12-04T15:12:35.740Z,5.52
2022-12-04T15:15:29.175Z,5.47
2022-12-04T15:18:17.558Z,5.41
2022-12-04T15:20:54.082Z,5.41
2022-12-04T15:23:35.477Z,5.25
2022-12-04T15:26:16.748Z,5.35
2022-12-04T15:29:03.359Z,5.28
2022-12-04T15:31:49.255Z,5.26
2022-12-04T15:34:22.437Z,5.24
2022-12-04T15:37:07.897Z,5.17
2022-12-04T15:39:38.155Z,5.26
2022-12-04T15:42:14.628Z,5.30
2022-12-04T15:45:02.743Z,5.39
2022-12-04T15:47:38.714Z,5.40
2022-12-04T15:50:30.203Z,5.54
2022-12-04T15:53:28.685Z,5.70
2022-12-04T15:56:03.541Z,5.56
2022-12-04T15:58:39.476Z,5.48
2022-12-04T16:01:12.181Z,5.45
2022-12-04T16:03:42.952Z,5.39
2022-12-04T16:06:20.497Z,5.33
2022-12-04T16:08:51.253Z,5.37
2022-12-04T16:11:18.676Z,5.38
2022-12-04T16:14:08.557Z,5.42
2022-12-04T16:16:44.328Z,5.36
2022-12-04T16:19:34.791Z,5.44
2022-12-04T16:22:11.075Z,5.52
2022-12-04T16:24:39.873Z,5.18
2022-12-04T16:27:17.562Z,5.21
2022-12-04T16:29:45.636Z,5.08
2022-12-04T16:32:16.478Z,4.99
2022-12-04T16:34:44.446Z,4.89
2022-12-04T16:37:13.954Z,4.87
2022-12-04T16:39:41.799Z,4.81
2022-12-04T16:42:28.635Z,4.76
2022-12-04T16:44:56.541Z,4.86
2022-12-04T16:47:24.067Z,4.87
2022-12-04T16:49:53.430Z,4.87
2022-12-04T16:52:21.696Z,4.96
2022-12-04T16:54:49.296Z,4.98
2022-12-04T16:57:16.553Z,5.04
2022-12-04T16:59:44.015Z,4.94
2022-12-04T17:02:26.108Z,5.00
2022-12-04T17:04:57.481Z,5.03
2022-12-04T17:07:25.662Z,4.89
2022-12-04T17:09:53.328Z,4.77
2022-12-04T17:12:20.596Z,4.82
2022-12-04T17:14:48.107Z,4.76
2022-12-04T17:17:15.377Z,4.73
2022-12-04T17:19:42.858Z,4.60
2022-12-04T17:22:10.104Z,4.51
2022-12-04T17:24:43.536Z,4.61
2022-12-04T17:27:14.673Z,4.70
2022-12-04T17:29:42.135Z,4.71
2022-12-04T17:32:09.389Z,4.60
2022-12-04T17:34:38.270Z,4.57
2022-12-04T17:37:05.478Z,4.45
2022-12-04T17:39:33.318Z,4.52
2022-12-04T17:42:00.782Z,4.48
2022-12-04T17:44:28.908Z,4.51
2022-12-04T17:46:56.233Z,4.47
2022-12-04T17:49:23.823Z,4.41
2022-12-04T17:51:51.056Z,4.55
2022-12-04T17:54:18.648Z,4.50
2022-12-04T17:56:49.528Z,4.57
2022-12-04T17:59:20.022Z,4.49
2022-12-04T18:01:50.024Z,4.49
2022-12-04T18:04:19.284Z,4.41
2022-12-04T18:06:47.180Z,4.45
2022-12-04T18:09:17.463Z,4.42
2022-12-04T18:11:47.635Z,4.43
2022-12-04T18:14:19.134Z,4.40
2022-12-04T18:16:53.228Z,4.39
2022-12-04T18:19:26.094Z,4.34
2022-12-04T18:21:54.780Z,4.30
2022-12-04T18:24:25.397Z,4.43
2022-12-04T18:26:53.324Z,4.51
2022-12-04T18:29:25.139Z,4.39
2022-12-04T18:31:53.366Z,4.33
2022-12-04T18:34:21.432Z,4.26
2022-12-04T18:36:49.132Z,4.24
2022-12-04T18:39:23.827Z,4.17
2022-12-04T18:41:55.781Z,4.15
2022-12-04T18:44:24.101Z,4.16
2022-12-04T18:46:51.606Z,4.06
2022-12-04T18:49:19.341Z,3.99
2022-12-04T18:51:49.952Z,4.06
2022-12-04T18:54:23.583Z,4.03
2022-12-04T18:56:51.666Z,4.02
2022-12-04T18:59:26.011Z,3.99
2022-12-04T19:01:54.293Z,4.16
2022-12-04T19:04:24.529Z,4.04
2022-12-04T19:06:55.944Z,3.93
2022-12-04T19:10:02.004Z,3.90
2022-12-04T19:12:16.772Z,3.91
2022-12-04T19:14:44.433Z,4.03
2022-12-04T19:17:11.802Z,4.02
2022-12-04T19:19:39.347Z,3.97
2022-12-04T19:22:06.629Z,4.14
2022-12-04T19:24:34.234Z,4.15
2022-12-04T19:27:09.887Z,4.09
2022-12-04T19:29:42.880Z,4.04
2022-12-04T19:32:11.558Z,4.04
2022-12-04T19:34:39.502Z,4.01
2022-12-04T19:37:07.676Z,3.83
2022-12-04T19:39:35.284Z,3.90
2022-12-04T19:42:02.551Z,3.88
2022-12-04T19:47:18.729Z,3.82
2022-12-04T19:49:46.710Z,3.96
2022-12-04T19:52:14.987Z,3.92
2022-12-04T19:54:42.554Z,4.03
2022-12-04T19:57:10.055Z,4.05
2022-12-04T19:59:41.765Z,3.95
2022-12-04T20:02:12.481Z,4.06
2022-12-04T20:04:40.195Z,4.03
2022-12-04T20:07:07.473Z,3.94
2022-12-04T20:09:35.166Z,3.91
2022-12-04T20:12:03.224Z,3.99
2022-12-04T20:14:30.775Z,3.96
2022-12-04T20:16:58.631Z,3.93
2022-12-04T20:19:26.200Z,4.03
2022-12-04T20:21:59.076Z,3.97
2022-12-04T20:24:27.172Z,3.92
2022-12-04T20:26:54.357Z,3.86
2022-12-04T20:29:21.910Z,3.88
2022-12-04T20:31:49.193Z,3.83
2022-12-04T20:34:19.565Z,3.84
2022-12-04T20:36:48.776Z,3.92
2022-12-04T20:39:18.771Z,3.59
2022-12-04T20:41:46.595Z,3.77
2022-12-04T20:44:19.535Z,3.68
2022-12-04T20:46:47.839Z,3.60
2022-12-04T20:49:22.507Z,3.67
2022-12-04T20:51:52.026Z,3.55
2022-12-04T20:54:22.187Z,3.59
2022-12-04T20:56:52.162Z,3.55
2022-12-04T20:59:21.909Z,3.44
2022-12-04T21:01:49.643Z,3.49
2022-12-04T21:04:18.233Z,3.39
2022-12-04T21:06:47.161Z,3.41
2022-12-04T21:09:25.223Z,3.51
2022-12-04T21:11:55.582Z,3.40
2022-12-04T21:14:48.269Z,3.31
2022-12-04T21:17:19.544Z,3.30
2022-12-04T21:19:50.469Z,3.44
2022-12-04T21:22:19.690Z,3.31
2022-12-04T21:24:47.482Z,3.39
2022-12-04T21:27:20.707Z,3.46
2022-12-04T21:29:49.859Z,3.48
2022-12-04T21:32:20.257Z,3.52
2022-12-04T21:34:49.735Z,3.48
2022-12-04T21:37:17.340Z,3.54
2022-12-04T21:39:44.980Z,3.45
2022-12-04T21:42:30.843Z,3.41
2022-12-04T21:45:01.153Z,3.45
2022-12-04T21:47:28.455Z,3.42
2022-12-04T21:49:56.541Z,3.41
2022-12-04T21:52:24.912Z,3.41
2022-12-04T21:54:55.334Z,3.29
2022-12-04T21:57:23.216Z,3.36
2022-12-04T21:59:54.192Z,3.29
2022-12-04T22:02:21.732Z,3.22
2022-12-04T22:04:49.607Z,3.29
2022-12-04T22:07:16.829Z,3.34
2022-12-04T22:09:46.230Z,3.39
2022-12-04T22:12:47.775Z,3.39
2022-12-04T22:15:00.928Z,3.14
2022-12-04T22:17:31.241Z,3.16
2022-12-04T22:19:58.996Z,3.19
2022-12-04T22:22:26.466Z,3.17
2022-12-04T22:24:53.983Z,3.24
2022-12-04T22:27:21.376Z,3.30
2022-12-04T22:29:51.114Z,3.18
2022-12-04T22:32:20.204Z,3.13
2022-12-04T22:34:49.288Z,3.10
2022-12-04T22:37:17.217Z,3.22
2022-12-04T22:39:44.739Z,3.19
2022-12-04T22:42:11.912Z,3.22
2022-12-04T22:44:39.494Z,3.32
2022-12-04T22:47:06.761Z,3.42
2022-12-04T22:49:34.679Z,3.49
2022-12-04T22:52:01.968Z,3.50
2022-12-04T22:54:29.658Z,3.50
2022-12-04T22:56:56.875Z,3.34
2022-12-04T22:59:24.380Z,3.52
2022-12-04T23:01:51.722Z,3.30
2022-12-04T23:04:19.216Z,3.33
2022-12-04T23:06:46.430Z,3.42
2022-12-04T23:09:16.915Z,3.30
2022-12-04T23:11:51.382Z,3.27
2022-12-04T23:14:19.352Z,3.30
2022-12-04T23:16:47.432Z,3.22
2022-12-04T23:19:19.420Z,3.32
2022-12-04T23:21:52.040Z,3.15
2022-12-04T23:24:25.052Z,3.21
2022-12-04T23:26:52.558Z,3.23
2022-12-04T23:32:07.318Z,3.35
2022-12-04T23:34:34.923Z,3.41
2022-12-04T23:37:02.159Z,3.34
2022-12-04T23:39:30.119Z,3.28
2022-12-04T23:41:57.297Z,3.11
2022-12-04T23:44:24.906Z,3.26
2022-12-04T23:46:52.146Z,3.20
2022-12-04T23:49:19.663Z,3.25
2022-12-04T23:51:46.869Z,3.26
2022-12-04T23:54:14.372Z,3.29
2022-12-04T23:56:41.578Z,3.34
2022-12-04T23:59:09.059Z,3.21
